createdAt,value
2022-10-13T00:01:12.061Z,99303.1
2022-10-13T00:07:04.031Z,99310.9
2022-10-13T00:12:39.191Z,99314.3
2022-10-13T00:18:17.904Z,99310.2
2022-10-13T00:24:05.740Z,99308.5
2022-10-13T00:29:40.735Z,99308.9
2022-10-13T00:35:15.398Z,99307.2
2022-10-13T00:40:50.753Z,99313.1
2022-10-13T00:46:25.732Z,99310.8
2022-10-13T00:52:00.365Z,99307.5
2022-10-13T00:57:35.261Z,99295.7
2022-10-13T01:03:11.378Z,99290
2022-10-13T01:08:47.407Z,99294.9
2022-10-13T01:14:22.868Z,99296.1
2022-10-13T01:19:58.703Z,99292.2
2022-10-13T01:25:33.896Z,99285.1
2022-10-13T01:31:08.933Z,99284.3
2022-10-13T01:36:44.053Z,99279.9
2022-10-13T01:42:20.271Z,99274
2022-10-13T01:47:56.539Z,99267.7
2022-10-13T01:53:32.775Z,99257.5
2022-10-13T01:59:08.685Z,99253
2022-10-13T02:04:43.735Z,99250.1
2022-10-13T02:10:18.911Z,99239.5
2022-10-13T02:15:54.923Z,99229.6
2022-10-13T02:21:29.875Z,99235.6
2022-10-13T02:27:06.569Z,99234.5
2022-10-13T02:32:41.624Z,99237.9
2022-10-13T02:38:16.734Z,99231.1
2022-10-13T02:43:52.243Z,99235
2022-10-13T02:49:27.451Z,99229
2022-10-13T02:55:07.255Z,99224.9
2022-10-13T03:00:51.549Z,99212.5
2022-10-13T03:06:28.262Z,99210.2
2022-10-13T03:12:04.901Z,99207.8
2022-10-13T03:17:40.117Z,99220
2022-10-13T03:23:15.260Z,99225.6
2022-10-13T03:28:51.045Z,99228.9
2022-10-13T03:34:26.833Z,99223.2
2022-10-13T03:40:02.937Z,99211.3
2022-10-13T03:45:38.330Z,99206.4
2022-10-13T03:51:19.884Z,99215.5
2022-10-13T03:56:58.035Z,99215.7
2022-10-13T04:02:33.335Z,99213.5
2022-10-13T04:08:08.262Z,99209.8
2022-10-13T04:13:43.215Z,99209.9
2022-10-13T04:19:18.325Z,99211.8
2022-10-13T04:24:54.631Z,99224.2
2022-10-13T04:30:29.567Z,99220.7
2022-10-13T04:36:04.372Z,99218.7
2022-10-13T04:41:40.413Z,99226.7
2022-10-13T04:47:15.398Z,99220.4
2022-10-13T04:52:50.369Z,99217.7
2022-10-13T04:58:26.363Z,99224.8
2022-10-13T05:04:01.402Z,99215.2
2022-10-13T05:09:48.869Z,99209.6
2022-10-13T05:15:23.784Z,99200
2022-10-13T05:20:58.546Z,99197.7
2022-10-13T05:26:34.433Z,99188.6
2022-10-13T05:32:21.100Z,99187.3
2022-10-13T05:38:05.318Z,99187.8
2022-10-13T05:43:41.077Z,99172.6
2022-10-13T05:49:15.809Z,99164.6
2022-10-13T05:54:50.820Z,99166.2
2022-10-13T06:00:26.300Z,99173.7
2022-10-13T06:06:03.836Z,99184.3
2022-10-13T06:11:38.658Z,99171.7
2022-10-13T06:17:14.175Z,99179.4
2022-10-13T06:22:49.815Z,99188.6
2022-10-13T06:28:26.206Z,99203.8
2022-10-13T06:34:01.624Z,99192.4
2022-10-13T06:39:36.734Z,99202.6
2022-10-13T06:45:11.534Z,99228.1
2022-10-13T06:50:46.550Z,99244.5
2022-10-13T06:56:21.490Z,99259.6
2022-10-13T07:01:56.616Z,99280.8
2022-10-13T07:07:33.148Z,99284.8
2022-10-13T07:13:08.743Z,99267.6
2022-10-13T07:18:44.500Z,99269.4
2022-10-13T07:24:19.556Z,99264.2
2022-10-13T07:29:55.519Z,99267
2022-10-13T07:35:31.703Z,99243.9
2022-10-13T07:41:08.074Z,99261.2
2022-10-13T07:46:43.495Z,99268.3
2022-10-13T07:52:21.009Z,99274.1
2022-10-13T07:57:58.266Z,99277.8
2022-10-13T08:03:50.976Z,99277.3
2022-10-13T08:09:25.738Z,99279.6
2022-10-13T08:15:07.139Z,99274.3
2022-10-13T08:20:45.356Z,99276.3
2022-10-13T08:27:14.642Z,99268
2022-10-13T08:32:54.902Z,99262.3
2022-10-13T08:38:29.951Z,99258.6
2022-10-13T08:51:27.541Z,99244.3
2022-10-13T08:57:03.120Z,99249.4
2022-10-13T09:02:37.884Z,99257.7
2022-10-13T09:08:13.174Z,99264.3
2022-10-13T09:13:48.146Z,99262.3
2022-10-13T09:19:22.975Z,99257.8
2022-10-13T09:24:58.111Z,99250.8
2022-10-13T09:30:42.174Z,99235.2
2022-10-13T09:36:17.244Z,99237.2
2022-10-13T09:42:13.601Z,99235.6
2022-10-13T09:47:49.785Z,99236.7
2022-10-13T09:53:24.744Z,99232.5
2022-10-13T09:58:59.998Z,99225.6
2022-10-13T10:04:35.454Z,99222.5
2022-10-13T10:10:10.721Z,99211.6
2022-10-13T10:15:46.225Z,99194.6
2022-10-13T10:21:21.681Z,99191.8
2022-10-13T10:26:56.625Z,99194.3
2022-10-13T10:32:31.741Z,99195.9
2022-10-13T10:38:06.811Z,99201.8
2022-10-13T10:43:42.050Z,99200.9
2022-10-13T10:49:17.116Z,99206.8
2022-10-13T10:54:52.218Z,99211.1
2022-10-13T11:06:04.778Z,99196.4
2022-10-13T11:11:40.086Z,99196.4
2022-10-13T11:17:14.931Z,99187.4
2022-10-13T11:22:51.194Z,99180.9
2022-10-13T11:28:26.944Z,99171.8
2022-10-13T11:34:02.721Z,99163.4
2022-10-13T11:39:39.928Z,99157.2
2022-10-13T11:45:15.696Z,99146.3
2022-10-13T11:50:50.574Z,99134.7
2022-10-13T11:56:25.875Z,99125.7
2022-10-13T12:02:00.766Z,99111.4
2022-10-13T12:07:36.759Z,99100.3
2022-10-13T12:13:12.016Z,99099.4
2022-10-13T12:18:47.013Z,99109.6
2022-10-13T12:24:23.155Z,99112.7
2022-10-13T12:29:58.521Z,99111.5
2022-10-13T12:35:33.657Z,99117
2022-10-13T12:41:08.592Z,99109.1
2022-10-13T12:46:43.640Z,99110
2022-10-13T12:52:20.558Z,99110.5
2022-10-13T12:57:58.405Z,99122.8
2022-10-13T13:03:34.254Z,99122.4
2022-10-13T13:09:09.543Z,99119.2
2022-10-13T13:14:45.403Z,99137
2022-10-13T13:20:20.675Z,99140.8
2022-10-13T13:25:55.385Z,99137.7
2022-10-13T13:31:30.358Z,99133.3
2022-10-13T13:37:05.877Z,99130.1
2022-10-13T13:42:40.958Z,99120.4
2022-10-13T13:48:15.989Z,99117.8
2022-10-13T13:53:50.849Z,99106.3
2022-10-13T13:59:27.279Z,99099.8
2022-10-13T14:05:02.602Z,99100
2022-10-13T14:10:37.360Z,99104.5
2022-10-13T14:16:13.824Z,99102
2022-10-13T14:21:48.897Z,99102.3
2022-10-13T14:27:23.832Z,99105.6
2022-10-13T14:32:59.169Z,99095.7
2022-10-13T14:38:34.026Z,99080.7
2022-10-13T14:44:08.999Z,99087.2
2022-10-13T14:49:44.114Z,99100.2
2022-10-13T14:55:19.127Z,99108.3
2022-10-13T15:00:54.174Z,99104.9
2022-10-13T15:06:29.771Z,99108.2
2022-10-13T15:12:04.767Z,99107.3
2022-10-13T15:17:39.591Z,99121.5
2022-10-13T15:23:14.838Z,99132.8
2022-10-13T15:28:50.276Z,99133.3
2022-10-13T15:34:26.178Z,99125.8
2022-10-13T15:40:01.689Z,99130.3
2022-10-13T15:45:36.640Z,99147.3
2022-10-13T15:51:11.641Z,99163.3
2022-10-13T15:56:46.667Z,99172.3
2022-10-13T16:02:23.364Z,99174.6
2022-10-13T16:08:00.895Z,99168.8
2022-10-13T16:13:35.744Z,99170.6
2022-10-13T16:19:10.620Z,99168.8
2022-10-13T16:24:46.565Z,99171.7
2022-10-13T16:30:21.353Z,99175.8
2022-10-13T16:35:56.083Z,99176.7
2022-10-13T16:41:31.241Z,99179
2022-10-13T16:47:06.077Z,99181.1
2022-10-13T16:52:40.791Z,99182.3
2022-10-13T16:58:16.090Z,99194.5
2022-10-13T17:03:51.258Z,99196.3
2022-10-13T17:09:26.057Z,99201
2022-10-13T17:15:01.100Z,99208.4
2022-10-13T17:20:37.163Z,99218.5
2022-10-13T17:26:11.988Z,99229.1
2022-10-13T17:31:46.786Z,99238.4
2022-10-13T17:37:23.907Z,99233.4
2022-10-13T17:42:58.931Z,99231.4
2022-10-13T17:48:34.460Z,99244
2022-10-13T17:54:17.060Z,99235.1
2022-10-13T17:59:52.137Z,99235.7
2022-10-13T18:05:27.014Z,99242.9
2022-10-13T18:11:09.457Z,99245.3
2022-10-13T18:16:45.886Z,99245.3
2022-10-13T18:22:20.795Z,99247.7
2022-10-13T18:27:55.857Z,99241.4
2022-10-13T18:33:33.316Z,99240.6
2022-10-13T18:39:08.183Z,99242
2022-10-13T18:44:42.989Z,99252.5
2022-10-13T18:50:20.000Z,99259.3
2022-10-13T18:56:10.223Z,99263.2
2022-10-13T19:01:45.338Z,99272.1
2022-10-13T19:07:23.014Z,99278.7
2022-10-13T19:12:58.619Z,99278.2
2022-10-13T19:18:33.554Z,99278.8
2022-10-13T19:24:08.718Z,99268
2022-10-13T19:29:43.652Z,99273
2022-10-13T19:35:18.483Z,99274.4
2022-10-13T19:40:53.463Z,99274.3
2022-10-13T19:46:28.568Z,99279.5
2022-10-13T19:52:03.673Z,99278
2022-10-13T19:57:38.449Z,99292.3
2022-10-13T20:03:13.519Z,99288
2022-10-13T20:08:48.723Z,99295.3
2022-10-13T20:14:23.863Z,99300.6
2022-10-13T20:20:02.223Z,99306.2
2022-10-13T20:25:41.168Z,99303
2022-10-13T20:31:16.031Z,99308.2
2022-10-13T20:36:51.121Z,99312.9
2022-10-13T20:42:26.572Z,99316.3
2022-10-13T20:48:01.368Z,99314.1
2022-10-13T20:53:36.153Z,99315
2022-10-13T20:59:10.900Z,99313.1
2022-10-13T21:04:46.793Z,99324.3
2022-10-13T21:10:21.856Z,99318.8
2022-10-13T21:15:56.875Z,99318.4
2022-10-13T21:21:32.981Z,99322.4
2022-10-13T21:27:08.372Z,99320.8
2022-10-13T21:32:44.586Z,99319.9
2022-10-13T21:38:19.423Z,99316.4
2022-10-13T21:43:54.576Z,99321.7
2022-10-13T21:49:29.439Z,99317.6
2022-10-13T21:55:04.068Z,99316.5
2022-10-13T22:00:39.956Z,99327.9
2022-10-13T22:06:20.294Z,99327.2
2022-10-13T22:11:57.189Z,99324.9
2022-10-13T22:17:32.106Z,99320.4
2022-10-13T22:23:07.047Z,99312.1
2022-10-13T22:28:42.552Z,99303.5
2022-10-13T22:34:19.256Z,99307.6
2022-10-13T22:39:54.293Z,99308.8
2022-10-13T22:45:29.123Z,99311.7
2022-10-13T22:51:04.373Z,99313.6
2022-10-13T22:56:39.277Z,99305.7
2022-10-13T23:02:14.501Z,99293.8
2022-10-13T23:07:49.544Z,99288.4
2022-10-13T23:13:24.561Z,99292.6
2022-10-13T23:19:00.233Z,99285.6
2022-10-13T23:24:35.435Z,99286.3
2022-10-13T23:30:10.575Z,99285
2022-10-13T23:35:46.635Z,99280.8
2022-10-13T23:41:21.532Z,99289.1
2022-10-13T23:46:56.689Z,99275.5
2022-10-13T23:52:31.887Z,99274.1
2022-10-13T23:58:07.040Z,99275.9
